sensor_id;sensor_type;location;lat;lon;timestamp;P1;durP1;ratioP1;P2;durP2;ratioP2
33780;SDS011;20097;50.832;19.100;2023-01-16T00:03:41;11.07;;;6.47;;
33780;SDS011;20097;50.832;19.100;2023-01-16T00:08:46;9.18;;;6.20;;
33780;SDS011;20097;50.832;19.100;2023-01-16T00:13:53;10.82;;;6.20;;
33780;SDS011;20097;50.832;19.100;2023-01-16T00:18:57;12.05;;;6.85;;
33780;SDS011;20097;50.832;19.100;2023-01-16T00:24:02;12.00;;;6.57;;
33780;SDS011;20097;50.832;19.100;2023-01-16T00:29:10;9.50;;;6.30;;
33780;SDS011;20097;50.832;19.100;2023-01-16T00:34:14;13.90;;;6.68;;
33780;SDS011;20097;50.832;19.100;2023-01-16T00:39:19;10.18;;;7.15;;
33780;SDS011;20097;50.832;19.100;2023-01-16T00:44:28;12.45;;;8.00;;
33780;SDS011;20097;50.832;19.100;2023-01-16T00:49:32;11.60;;;6.38;;
33780;SDS011;20097;50.832;19.100;2023-01-16T00:54:36;11.82;;;5.57;;
33780;SDS011;20097;50.832;19.100;2023-01-16T00:59:42;10.75;;;5.80;;
33780;SDS011;20097;50.832;19.100;2023-01-16T01:04:47;14.00;;;6.10;;
33780;SDS011;20097;50.832;19.100;2023-01-16T01:09:52;12.95;;;6.72;;
33780;SDS011;20097;50.832;19.100;2023-01-16T01:14:57;10.40;;;6.65;;
33780;SDS011;20097;50.832;19.100;2023-01-16T01:20:02;10.48;;;6.07;;
33780;SDS011;20097;50.832;19.100;2023-01-16T01:25:08;10.65;;;6.22;;
33780;SDS011;20097;50.832;19.100;2023-01-16T01:30:14;8.90;;;5.75;;
33780;SDS011;20097;50.832;19.100;2023-01-16T01:35:20;7.10;;;4.63;;
33780;SDS011;20097;50.832;19.100;2023-01-16T01:40:25;8.93;;;6.03;;
33780;SDS011;20097;50.832;19.100;2023-01-16T01:45:31;8.95;;;5.88;;
33780;SDS011;20097;50.832;19.100;2023-01-16T01:50:36;13.95;;;6.80;;
33780;SDS011;20097;50.832;19.100;2023-01-16T01:55:47;13.15;;;7.63;;
33780;SDS011;20097;50.832;19.100;2023-01-16T02:00:55;16.98;;;9.70;;
33780;SDS011;20097;50.832;19.100;2023-01-16T02:06:04;18.25;;;10.25;;
33780;SDS011;20097;50.832;19.100;2023-01-16T02:11:19;18.30;;;11.23;;
33780;SDS011;20097;50.832;19.100;2023-01-16T02:16:31;19.50;;;10.88;;
33780;SDS011;20097;50.832;19.100;2023-01-16T02:22:07;17.13;;;10.02;;
33780;SDS011;20097;50.832;19.100;2023-01-16T02:27:53;15.93;;;9.02;;
33780;SDS011;20097;50.832;19.100;2023-01-16T02:33:33;21.05;;;8.98;;
33780;SDS011;20097;50.832;19.100;2023-01-16T02:38:55;14.48;;;9.02;;
33780;SDS011;20097;50.832;19.100;2023-01-16T02:44:10;13.13;;;8.63;;
33780;SDS011;20097;50.832;19.100;2023-01-16T02:49:40;17.63;;;10.05;;
33780;SDS011;20097;50.832;19.100;2023-01-16T02:54:52;18.15;;;11.90;;
33780;SDS011;20097;50.832;19.100;2023-01-16T03:00:03;16.00;;;9.43;;
33780;SDS011;20097;50.832;19.100;2023-01-16T03:05:10;17.02;;;9.27;;
33780;SDS011;20097;50.832;19.100;2023-01-16T03:10:21;15.73;;;9.73;;
33780;SDS011;20097;50.832;19.100;2023-01-16T03:16:01;16.02;;;9.43;;
33780;SDS011;20097;50.832;19.100;2023-01-16T03:21:18;18.73;;;10.15;;
33780;SDS011;20097;50.832;19.100;2023-01-16T03:26:36;14.38;;;9.02;;
33780;SDS011;20097;50.832;19.100;2023-01-16T03:31:47;15.98;;;9.45;;
33780;SDS011;20097;50.832;19.100;2023-01-16T03:36:58;17.75;;;9.95;;
33780;SDS011;20097;50.832;19.100;2023-01-16T03:42:10;17.67;;;9.90;;
33780;SDS011;20097;50.832;19.100;2023-01-16T03:47:20;16.13;;;9.68;;
33780;SDS011;20097;50.832;19.100;2023-01-16T03:52:33;22.45;;;13.02;;
33780;SDS011;20097;50.832;19.100;2023-01-16T03:57:44;15.27;;;9.52;;
33780;SDS011;20097;50.832;19.100;2023-01-16T04:02:53;19.63;;;10.85;;
33780;SDS011;20097;50.832;19.100;2023-01-16T04:08:10;16.73;;;11.07;;
33780;SDS011;20097;50.832;19.100;2023-01-16T04:13:18;18.42;;;11.02;;
33780;SDS011;20097;50.832;19.100;2023-01-16T04:18:30;17.25;;;11.38;;
33780;SDS011;20097;50.832;19.100;2023-01-16T04:23:38;20.15;;;13.05;;
33780;SDS011;20097;50.832;19.100;2023-01-16T04:28:43;29.27;;;16.67;;
33780;SDS011;20097;50.832;19.100;2023-01-16T04:33:47;20.23;;;12.23;;
33780;SDS011;20097;50.832;19.100;2023-01-16T04:38:56;20.30;;;11.77;;
33780;SDS011;20097;50.832;19.100;2023-01-16T04:44:00;23.65;;;12.82;;
33780;SDS011;20097;50.832;19.100;2023-01-16T04:49:06;19.08;;;11.95;;
33780;SDS011;20097;50.832;19.100;2023-01-16T04:54:14;23.17;;;14.70;;
33780;SDS011;20097;50.832;19.100;2023-01-16T04:59:20;23.17;;;15.50;;
33780;SDS011;20097;50.832;19.100;2023-01-16T05:04:25;22.50;;;14.48;;
33780;SDS011;20097;50.832;19.100;2023-01-16T05:09:31;23.45;;;15.73;;
33780;SDS011;20097;50.832;19.100;2023-01-16T05:14:36;32.60;;;18.17;;
33780;SDS011;20097;50.832;19.100;2023-01-16T05:19:40;29.52;;;16.92;;
33780;SDS011;20097;50.832;19.100;2023-01-16T05:29:50;29.65;;;17.23;;
33780;SDS011;20097;50.832;19.100;2023-01-16T05:40:04;32.75;;;19.20;;
33780;SDS011;20097;50.832;19.100;2023-01-16T05:45:10;33.80;;;20.48;;
33780;SDS011;20097;50.832;19.100;2023-01-16T05:55:24;34.95;;;21.50;;
33780;SDS011;20097;50.832;19.100;2023-01-16T06:00:28;35.17;;;20.65;;
33780;SDS011;20097;50.832;19.100;2023-01-16T06:05:33;36.92;;;22.65;;
33780;SDS011;20097;50.832;19.100;2023-01-16T06:10:39;44.33;;;25.27;;
33780;SDS011;20097;50.832;19.100;2023-01-16T06:15:44;45.97;;;27.35;;
33780;SDS011;20097;50.832;19.100;2023-01-16T06:20:48;49.75;;;26.10;;
33780;SDS011;20097;50.832;19.100;2023-01-16T06:25:55;51.13;;;28.00;;
33780;SDS011;20097;50.832;19.100;2023-01-16T06:31:00;54.70;;;28.30;;
33780;SDS011;20097;50.832;19.100;2023-01-16T06:36:04;54.20;;;29.33;;
33780;SDS011;20097;50.832;19.100;2023-01-16T06:46:15;46.35;;;25.83;;
33780;SDS011;20097;50.832;19.100;2023-01-16T06:51:19;49.83;;;26.80;;
33780;SDS011;20097;50.832;19.100;2023-01-16T06:56:25;46.45;;;25.85;;
33780;SDS011;20097;50.832;19.100;2023-01-16T07:01:29;49.20;;;25.85;;
33780;SDS011;20097;50.832;19.100;2023-01-16T07:11:40;48.45;;;28.25;;
33780;SDS011;20097;50.832;19.100;2023-01-16T07:16:44;48.90;;;25.50;;
33780;SDS011;20097;50.832;19.100;2023-01-16T07:22:06;46.17;;;24.92;;
33780;SDS011;20097;50.832;19.100;2023-01-16T07:27:32;48.88;;;23.67;;
33780;SDS011;20097;50.832;19.100;2023-01-16T07:32:36;44.63;;;24.67;;
33780;SDS011;20097;50.832;19.100;2023-01-16T07:37:42;54.55;;;26.35;;
33780;SDS011;20097;50.832;19.100;2023-01-16T07:42:50;46.55;;;25.13;;
33780;SDS011;20097;50.832;19.100;2023-01-16T07:47:56;50.97;;;24.88;;
33780;SDS011;20097;50.832;19.100;2023-01-16T07:53:02;45.55;;;26.15;;
33780;SDS011;20097;50.832;19.100;2023-01-16T07:58:08;45.08;;;24.73;;
33780;SDS011;20097;50.832;19.100;2023-01-16T08:03:13;42.15;;;24.30;;
33780;SDS011;20097;50.832;19.100;2023-01-16T08:08:18;37.55;;;22.38;;
33780;SDS011;20097;50.832;19.100;2023-01-16T08:13:24;40.28;;;24.80;;
33780;SDS011;20097;50.832;19.100;2023-01-16T08:18:42;35.63;;;21.17;;
33780;SDS011;20097;50.832;19.100;2023-01-16T08:23:51;43.60;;;22.42;;
33780;SDS011;20097;50.832;19.100;2023-01-16T08:28:56;37.65;;;22.17;;
33780;SDS011;20097;50.832;19.100;2023-01-16T08:34:02;34.90;;;21.33;;
33780;SDS011;20097;50.832;19.100;2023-01-16T08:39:08;38.15;;;21.17;;
33780;SDS011;20097;50.832;19.100;2023-01-16T08:44:14;34.35;;;21.23;;
33780;SDS011;20097;50.832;19.100;2023-01-16T08:49:36;37.03;;;19.88;;
33780;SDS011;20097;50.832;19.100;2023-01-16T08:54:58;37.85;;;20.92;;
33780;SDS011;20097;50.832;19.100;2023-01-16T09:00:05;33.88;;;20.23;;
33780;SDS011;20097;50.832;19.100;2023-01-16T09:05:12;35.15;;;18.63;;
33780;SDS011;20097;50.832;19.100;2023-01-16T09:10:16;33.83;;;19.00;;
33780;SDS011;20097;50.832;19.100;2023-01-16T09:25:31;35.70;;;18.70;;
33780;SDS011;20097;50.832;19.100;2023-01-16T09:30:38;32.80;;;18.20;;
33780;SDS011;20097;50.832;19.100;2023-01-16T09:35:42;32.33;;;17.67;;
33780;SDS011;20097;50.832;19.100;2023-01-16T09:40:47;31.38;;;17.52;;
33780;SDS011;20097;50.832;19.100;2023-01-16T09:45:58;34.42;;;17.75;;
33780;SDS011;20097;50.832;19.100;2023-01-16T09:51:10;31.90;;;17.05;;
33780;SDS011;20097;50.832;19.100;2023-01-16T09:56:18;27.00;;;16.98;;
33780;SDS011;20097;50.832;19.100;2023-01-16T10:02:05;27.08;;;14.85;;
33780;SDS011;20097;50.832;19.100;2023-01-16T10:07:31;32.08;;;16.30;;
33780;SDS011;20097;50.832;19.100;2023-01-16T10:12:51;30.48;;;16.17;;
33780;SDS011;20097;50.832;19.100;2023-01-16T10:18:13;32.90;;;17.92;;
33780;SDS011;20097;50.832;19.100;2023-01-16T10:23:34;31.67;;;17.95;;
33780;SDS011;20097;50.832;19.100;2023-01-16T10:28:55;29.85;;;16.10;;
33780;SDS011;20097;50.832;19.100;2023-01-16T10:34:09;29.58;;;14.65;;
33780;SDS011;20097;50.832;19.100;2023-01-16T10:39:19;24.50;;;12.82;;
33780;SDS011;20097;50.832;19.100;2023-01-16T10:44:30;24.00;;;12.13;;
33780;SDS011;20097;50.832;19.100;2023-01-16T10:49:55;23.13;;;12.27;;
33780;SDS011;20097;50.832;19.100;2023-01-16T10:55:01;24.77;;;13.38;;
33780;SDS011;20097;50.832;19.100;2023-01-16T11:00:10;25.55;;;12.43;;
33780;SDS011;20097;50.832;19.100;2023-01-16T11:05:24;22.05;;;11.95;;
33780;SDS011;20097;50.832;19.100;2023-01-16T11:10:31;29.52;;;13.57;;
33780;SDS011;20097;50.832;19.100;2023-01-16T11:21:12;24.50;;;13.00;;
33780;SDS011;20097;50.832;19.100;2023-01-16T11:26:27;24.42;;;12.32;;
33780;SDS011;20097;50.832;19.100;2023-01-16T11:31:33;20.02;;;10.55;;
33780;SDS011;20097;50.832;19.100;2023-01-16T11:41:44;20.70;;;11.07;;
33780;SDS011;20097;50.832;19.100;2023-01-16T11:46:51;19.45;;;10.20;;
33780;SDS011;20097;50.832;19.100;2023-01-16T11:52:03;19.05;;;10.52;;
33780;SDS011;20097;50.832;19.100;2023-01-16T11:57:17;23.52;;;12.60;;
33780;SDS011;20097;50.832;19.100;2023-01-16T12:02:41;24.58;;;11.10;;
33780;SDS011;20097;50.832;19.100;2023-01-16T12:08:33;16.48;;;10.73;;
33780;SDS011;20097;50.832;19.100;2023-01-16T12:13:53;18.38;;;10.27;;
33780;SDS011;20097;50.832;19.100;2023-01-16T12:19:31;20.65;;;11.18;;
33780;SDS011;20097;50.832;19.100;2023-01-16T12:25:01;23.23;;;11.30;;
33780;SDS011;20097;50.832;19.100;2023-01-16T12:30:20;18.42;;;10.65;;
33780;SDS011;20097;50.832;19.100;2023-01-16T12:35:34;18.92;;;10.70;;
33780;SDS011;20097;50.832;19.100;2023-01-16T12:40:55;17.58;;;9.80;;
33780;SDS011;20097;50.832;19.100;2023-01-16T12:46:44;22.52;;;12.15;;
33780;SDS011;20097;50.832;19.100;2023-01-16T12:52:04;20.65;;;10.07;;
33780;SDS011;20097;50.832;19.100;2023-01-16T13:03:09;16.20;;;7.90;;
33780;SDS011;20097;50.832;19.100;2023-01-16T13:08:23;19.85;;;8.38;;
33780;SDS011;20097;50.832;19.100;2023-01-16T13:13:35;15.15;;;7.07;;
33780;SDS011;20097;50.832;19.100;2023-01-16T13:18:46;14.57;;;7.28;;
33780;SDS011;20097;50.832;19.100;2023-01-16T13:23:56;10.75;;;5.93;;
33780;SDS011;20097;50.832;19.100;2023-01-16T13:29:09;13.88;;;6.18;;
33780;SDS011;20097;50.832;19.100;2023-01-16T13:34:20;14.95;;;6.22;;
33780;SDS011;20097;50.832;19.100;2023-01-16T13:39:37;13.57;;;6.78;;
33780;SDS011;20097;50.832;19.100;2023-01-16T13:45:28;12.70;;;5.63;;
33780;SDS011;20097;50.832;19.100;2023-01-16T13:50:56;15.95;;;7.22;;
33780;SDS011;20097;50.832;19.100;2023-01-16T13:56:04;16.70;;;7.32;;
33780;SDS011;20097;50.832;19.100;2023-01-16T14:01:29;17.20;;;7.68;;
33780;SDS011;20097;50.832;19.100;2023-01-16T14:06:43;16.70;;;8.65;;
33780;SDS011;20097;50.832;19.100;2023-01-16T14:11:57;13.60;;;7.53;;
33780;SDS011;20097;50.832;19.100;2023-01-16T14:17:04;16.05;;;7.70;;
33780;SDS011;20097;50.832;19.100;2023-01-16T14:22:15;18.25;;;7.43;;
33780;SDS011;20097;50.832;19.100;2023-01-16T14:27:41;15.95;;;7.38;;
33780;SDS011;20097;50.832;19.100;2023-01-16T14:32:53;13.43;;;7.15;;
33780;SDS011;20097;50.832;19.100;2023-01-16T14:38:02;12.30;;;7.70;;
33780;SDS011;20097;50.832;19.100;2023-01-16T14:43:11;19.35;;;8.45;;
33780;SDS011;20097;50.832;19.100;2023-01-16T14:48:38;17.45;;;8.18;;
33780;SDS011;20097;50.832;19.100;2023-01-16T14:54:02;10.40;;;6.97;;
33780;SDS011;20097;50.832;19.100;2023-01-16T14:59:29;19.42;;;9.43;;
33780;SDS011;20097;50.832;19.100;2023-01-16T15:04:40;19.13;;;9.57;;
33780;SDS011;20097;50.832;19.100;2023-01-16T15:09:50;23.13;;;11.70;;
33780;SDS011;20097;50.832;19.100;2023-01-16T15:14:57;22.95;;;11.93;;
33780;SDS011;20097;50.832;19.100;2023-01-16T15:20:15;23.77;;;11.30;;
33780;SDS011;20097;50.832;19.100;2023-01-16T15:25:52;21.33;;;11.48;;
33780;SDS011;20097;50.832;19.100;2023-01-16T15:31:43;20.52;;;11.45;;
33780;SDS011;20097;50.832;19.100;2023-01-16T15:37:11;23.70;;;13.68;;
33780;SDS011;20097;50.832;19.100;2023-01-16T15:47:58;20.67;;;12.52;;
33780;SDS011;20097;50.832;19.100;2023-01-16T15:53:34;22.75;;;13.05;;
33780;SDS011;20097;50.832;19.100;2023-01-16T15:58:43;22.27;;;13.93;;
33780;SDS011;20097;50.832;19.100;2023-01-16T16:03:57;21.15;;;13.77;;
33780;SDS011;20097;50.832;19.100;2023-01-16T16:09:09;26.83;;;14.13;;
33780;SDS011;20097;50.832;19.100;2023-01-16T16:14:24;27.30;;;14.15;;
33780;SDS011;20097;50.832;19.100;2023-01-16T16:19:51;24.38;;;13.95;;
33780;SDS011;20097;50.832;19.100;2023-01-16T16:24:57;24.90;;;13.20;;
33780;SDS011;20097;50.832;19.100;2023-01-16T16:30:22;29.40;;;13.98;;
33780;SDS011;20097;50.832;19.100;2023-01-16T16:35:30;21.17;;;13.13;;
33780;SDS011;20097;50.832;19.100;2023-01-16T16:40:38;26.52;;;13.70;;
33780;SDS011;20097;50.832;19.100;2023-01-16T16:45:45;25.08;;;14.32;;
33780;SDS011;20097;50.832;19.100;2023-01-16T16:50:49;23.67;;;13.77;;
33780;SDS011;20097;50.832;19.100;2023-01-16T16:56:05;22.42;;;13.70;;
33780;SDS011;20097;50.832;19.100;2023-01-16T17:01:13;24.20;;;14.10;;
33780;SDS011;20097;50.832;19.100;2023-01-16T17:06:21;25.70;;;14.27;;
33780;SDS011;20097;50.832;19.100;2023-01-16T17:11:31;25.67;;;16.70;;
33780;SDS011;20097;50.832;19.100;2023-01-16T17:16:36;27.20;;;16.42;;
33780;SDS011;20097;50.832;19.100;2023-01-16T17:21:42;20.92;;;14.32;;
33780;SDS011;20097;50.832;19.100;2023-01-16T17:26:50;21.83;;;13.80;;
33780;SDS011;20097;50.832;19.100;2023-01-16T17:31:54;18.27;;;12.52;;
33780;SDS011;20097;50.832;19.100;2023-01-16T17:36:59;19.48;;;12.52;;
33780;SDS011;20097;50.832;19.100;2023-01-16T17:42:07;19.88;;;12.88;;
33780;SDS011;20097;50.832;19.100;2023-01-16T17:47:31;19.17;;;12.75;;
33780;SDS011;20097;50.832;19.100;2023-01-16T17:52:39;22.60;;;14.85;;
33780;SDS011;20097;50.832;19.100;2023-01-16T17:57:46;17.13;;;12.57;;
33780;SDS011;20097;50.832;19.100;2023-01-16T18:02:51;20.67;;;13.25;;
33780;SDS011;20097;50.832;19.100;2023-01-16T18:07:56;20.27;;;14.50;;
33780;SDS011;20097;50.832;19.100;2023-01-16T18:13:03;22.27;;;15.00;;
33780;SDS011;20097;50.832;19.100;2023-01-16T18:18:26;22.38;;;15.35;;
33780;SDS011;20097;50.832;19.100;2023-01-16T18:23:31;27.23;;;16.38;;
33780;SDS011;20097;50.832;19.100;2023-01-16T18:28:37;26.00;;;16.15;;
33780;SDS011;20097;50.832;19.100;2023-01-16T18:33:41;31.55;;;16.45;;
33780;SDS011;20097;50.832;19.100;2023-01-16T18:38:49;28.65;;;16.63;;
33780;SDS011;20097;50.832;19.100;2023-01-16T18:44:18;29.70;;;15.55;;
33780;SDS011;20097;50.832;19.100;2023-01-16T18:49:40;23.35;;;15.40;;
33780;SDS011;20097;50.832;19.100;2023-01-16T18:55:03;22.65;;;14.15;;
33780;SDS011;20097;50.832;19.100;2023-01-16T19:00:34;21.58;;;13.95;;
33780;SDS011;20097;50.832;19.100;2023-01-16T19:05:56;23.00;;;12.73;;
33780;SDS011;20097;50.832;19.100;2023-01-16T19:11:01;20.23;;;13.82;;
33780;SDS011;20097;50.832;19.100;2023-01-16T19:21:30;20.40;;;13.38;;
33780;SDS011;20097;50.832;19.100;2023-01-16T19:26:35;20.58;;;13.32;;
33780;SDS011;20097;50.832;19.100;2023-01-16T19:31:45;19.45;;;13.57;;
33780;SDS011;20097;50.832;19.100;2023-01-16T19:36:51;21.90;;;13.80;;
33780;SDS011;20097;50.832;19.100;2023-01-16T19:41:57;22.95;;;12.77;;
33780;SDS011;20097;50.832;19.100;2023-01-16T19:47:20;20.55;;;14.02;;
33780;SDS011;20097;50.832;19.100;2023-01-16T19:52:24;22.20;;;14.52;;
33780;SDS011;20097;50.832;19.100;2023-01-16T19:57:30;24.60;;;15.32;;
33780;SDS011;20097;50.832;19.100;2023-01-16T20:02:36;20.75;;;13.80;;
33780;SDS011;20097;50.832;19.100;2023-01-16T20:07:40;21.52;;;13.45;;
33780;SDS011;20097;50.832;19.100;2023-01-16T20:12:46;22.42;;;14.00;;
33780;SDS011;20097;50.832;19.100;2023-01-16T20:17:53;24.73;;;15.52;;
33780;SDS011;20097;50.832;19.100;2023-01-16T20:22:57;25.63;;;15.75;;
33780;SDS011;20097;50.832;19.100;2023-01-16T20:28:02;24.55;;;15.27;;
33780;SDS011;20097;50.832;19.100;2023-01-16T20:33:08;26.33;;;15.48;;
33780;SDS011;20097;50.832;19.100;2023-01-16T20:38:12;25.73;;;16.38;;
33780;SDS011;20097;50.832;19.100;2023-01-16T20:43:16;27.25;;;14.20;;
33780;SDS011;20097;50.832;19.100;2023-01-16T20:48:39;25.55;;;15.38;;
33780;SDS011;20097;50.832;19.100;2023-01-16T20:53:44;23.73;;;15.65;;
33780;SDS011;20097;50.832;19.100;2023-01-16T20:58:48;28.40;;;15.98;;
33780;SDS011;20097;50.832;19.100;2023-01-16T21:03:54;27.75;;;15.55;;
33780;SDS011;20097;50.832;19.100;2023-01-16T21:08:59;23.35;;;14.55;;
33780;SDS011;20097;50.832;19.100;2023-01-16T21:14:04;25.13;;;15.23;;
33780;SDS011;20097;50.832;19.100;2023-01-16T21:19:18;24.50;;;15.50;;
33780;SDS011;20097;50.832;19.100;2023-01-16T21:24:40;23.13;;;15.45;;
33780;SDS011;20097;50.832;19.100;2023-01-16T21:29:45;32.83;;;15.85;;
33780;SDS011;20097;50.832;19.100;2023-01-16T21:34:51;27.98;;;16.02;;
33780;SDS011;20097;50.832;19.100;2023-01-16T21:39:56;29.65;;;17.02;;
33780;SDS011;20097;50.832;19.100;2023-01-16T21:50:25;24.95;;;14.27;;
33780;SDS011;20097;50.832;19.100;2023-01-16T21:55:30;28.38;;;15.00;;
33780;SDS011;20097;50.832;19.100;2023-01-16T22:00:34;25.50;;;15.07;;
33780;SDS011;20097;50.832;19.100;2023-01-16T22:05:40;25.08;;;15.50;;
33780;SDS011;20097;50.832;19.100;2023-01-16T22:10:45;29.90;;;15.23;;
33780;SDS011;20097;50.832;19.100;2023-01-16T22:16:03;30.40;;;16.20;;
33780;SDS011;20097;50.832;19.100;2023-01-16T22:21:33;37.25;;;19.80;;
33780;SDS011;20097;50.832;19.100;2023-01-16T22:26:39;28.65;;;18.38;;
33780;SDS011;20097;50.832;19.100;2023-01-16T22:31:47;27.67;;;16.08;;
33780;SDS011;20097;50.832;19.100;2023-01-16T22:36:53;23.17;;;15.50;;
33780;SDS011;20097;50.832;19.100;2023-01-16T22:41:58;23.77;;;14.80;;
33780;SDS011;20097;50.832;19.100;2023-01-16T22:47:03;25.42;;;15.63;;
33780;SDS011;20097;50.832;19.100;2023-01-16T22:52:10;27.42;;;15.90;;
33780;SDS011;20097;50.832;19.100;2023-01-16T22:57:15;23.40;;;15.07;;
33780;SDS011;20097;50.832;19.100;2023-01-16T23:02:19;25.45;;;14.70;;
33780;SDS011;20097;50.832;19.100;2023-01-16T23:07:25;26.92;;;15.23;;
33780;SDS011;20097;50.832;19.100;2023-01-16T23:12:30;24.70;;;14.07;;
33780;SDS011;20097;50.832;19.100;2023-01-16T23:17:34;27.70;;;15.52;;
33780;SDS011;20097;50.832;19.100;2023-01-16T23:27:45;30.17;;;16.00;;
33780;SDS011;20097;50.832;19.100;2023-01-16T23:32:50;27.35;;;16.13;;
33780;SDS011;20097;50.832;19.100;2023-01-16T23:37:56;27.00;;;16.00;;
33780;SDS011;20097;50.832;19.100;2023-01-16T23:43:00;24.25;;;15.95;;
33780;SDS011;20097;50.832;19.100;2023-01-16T23:48:24;28.33;;;17.53;;
33780;SDS011;20097;50.832;19.100;2023-01-16T23:53:30;33.63;;;18.48;;
33780;SDS011;20097;50.832;19.100;2023-01-16T23:58:35;31.30;;;18.15;;
